createdAt,value
2023-05-23T00:02:39.103Z,21.62
2023-05-23T00:07:41.325Z,21.66
2023-05-23T00:12:43.231Z,21.73
2023-05-23T00:17:45.110Z,21.72
2023-05-23T00:22:49.315Z,21.61
2023-05-23T00:27:51.623Z,21.52
2023-05-23T00:32:54.660Z,21.27
2023-05-23T00:37:56.589Z,21.21
2023-05-23T00:42:58.475Z,21.20
2023-05-23T00:48:01.611Z,21.16
2023-05-23T00:53:04.408Z,21.07
2023-05-23T00:58:06.987Z,20.98
2023-05-23T01:03:09.307Z,21.02
2023-05-23T01:08:11.336Z,21.04
2023-05-23T01:13:26.106Z,21.07
2023-05-23T01:18:31.455Z,20.95
2023-05-23T01:24:07.644Z,20.96
2023-05-23T01:29:17.442Z,20.93
2023-05-23T01:34:21.010Z,20.94
2023-05-23T01:39:23.850Z,20.95
2023-05-23T01:44:25.762Z,20.90
2023-05-23T01:49:31.967Z,20.78
2023-05-23T01:54:35.616Z,20.55
2023-05-23T01:59:38.651Z,20.35
2023-05-23T02:04:40.943Z,20.21
2023-05-23T02:09:42.864Z,20.18
2023-05-23T02:14:44.957Z,20.07
2023-05-23T02:19:47.065Z,19.95
2023-05-23T02:24:49.908Z,19.92
2023-05-23T02:29:51.820Z,19.83
2023-05-23T02:34:55.684Z,19.67
2023-05-23T02:39:59.194Z,19.55
2023-05-23T02:45:01.742Z,19.50
2023-05-23T02:50:04.008Z,19.43
2023-05-23T02:55:06.942Z,19.40
2023-05-23T03:00:15.846Z,19.47
2023-05-23T03:05:22.703Z,19.51
2023-05-23T03:10:24.598Z,19.60
2023-05-23T03:15:26.454Z,19.66
2023-05-23T03:20:28.339Z,19.68
2023-05-23T03:25:30.584Z,19.71
2023-05-23T03:30:32.596Z,19.65
2023-05-23T03:35:34.497Z,19.63
2023-05-23T03:40:36.390Z,19.42
2023-05-23T03:45:38.619Z,19.42
2023-05-23T03:50:47.928Z,19.31
2023-05-23T03:55:49.835Z,19.07
2023-05-23T04:00:53.321Z,19.15
2023-05-23T04:05:57.880Z,18.94
2023-05-23T04:11:02.997Z,18.86
2023-05-23T04:16:09.731Z,18.88
2023-05-23T04:21:11.753Z,18.85
2023-05-23T04:26:22.539Z,18.81
2023-05-23T04:31:28.208Z,18.97
2023-05-23T04:36:30.525Z,18.93
2023-05-23T04:41:32.825Z,18.88
2023-05-23T04:47:02.882Z,18.83
2023-05-23T04:52:24.146Z,18.85
2023-05-23T04:57:26.954Z,18.79
2023-05-23T05:02:35.404Z,18.83
2023-05-23T05:07:38.334Z,18.90
2023-05-23T05:12:41.846Z,18.96
2023-05-23T05:17:46.122Z,18.93
2023-05-23T05:22:58.715Z,19.01
2023-05-23T05:28:06.318Z,19.06
2023-05-23T05:33:15.884Z,19.21
2023-05-23T05:38:18.165Z,19.28
2023-05-23T05:43:21.304Z,19.34
2023-05-23T05:48:23.412Z,19.54
2023-05-23T05:53:27.491Z,19.49
2023-05-23T05:58:29.702Z,19.50
2023-05-23T06:03:35.875Z,19.52
2023-05-23T06:08:37.916Z,19.56
2023-05-23T06:13:39.890Z,19.64
2023-05-23T06:18:42.016Z,19.75
2023-05-23T06:23:44.249Z,19.74
2023-05-23T06:28:46.276Z,19.67
2023-05-23T06:33:48.195Z,19.52
2023-05-23T06:38:50.072Z,19.47
2023-05-23T06:43:51.949Z,19.51
2023-05-23T06:49:10.649Z,19.63
2023-05-23T06:54:16.637Z,19.70
2023-05-23T06:59:19.743Z,19.71
2023-05-23T07:04:21.947Z,19.78
2023-05-23T07:09:24.281Z,19.83
2023-05-23T07:14:31.232Z,19.78
2023-05-23T07:19:33.370Z,19.88
2023-05-23T07:24:37.289Z,20.00
2023-05-23T07:29:40.228Z,20.09
2023-05-23T07:34:44.072Z,20.01
2023-05-23T07:39:46.171Z,19.97
2023-05-23T07:44:48.333Z,19.94
2023-05-23T07:49:52.358Z,20.03
2023-05-23T07:54:55.705Z,20.11
2023-05-23T07:59:57.998Z,20.43
2023-05-23T08:05:01.866Z,20.72
2023-05-23T08:10:05.331Z,20.73
2023-05-23T08:15:08.307Z,20.69
2023-05-23T08:20:20.013Z,20.95
2023-05-23T08:25:22.063Z,21.23
2023-05-23T08:30:25.588Z,21.33
2023-05-23T08:35:29.485Z,21.17
2023-05-23T08:40:32.986Z,21.15
2023-05-23T08:45:44.815Z,21.18
2023-05-23T08:50:51.838Z,21.11
2023-05-23T08:55:58.912Z,20.92
2023-05-23T09:01:06.616Z,20.74
2023-05-23T09:06:10.242Z,20.50
2023-05-23T09:11:14.847Z,20.38
2023-05-23T09:16:19.843Z,20.26
2023-05-23T09:21:32.121Z,20.16
2023-05-23T09:26:40.311Z,20.20
2023-05-23T09:31:42.332Z,20.36
2023-05-23T09:36:47.090Z,20.50
2023-05-23T09:41:50.798Z,20.45
2023-05-23T09:46:53.922Z,20.45
2023-05-23T09:52:01.477Z,20.36
2023-05-23T09:57:08.875Z,20.17
2023-05-23T10:02:13.397Z,19.96
2023-05-23T10:07:20.402Z,19.96
2023-05-23T10:12:37.701Z,20.11
2023-05-23T10:18:17.902Z,20.08
2023-05-23T10:23:21.331Z,20.23
2023-05-23T10:28:24.740Z,20.33
2023-05-23T10:33:31.832Z,20.47
2023-05-23T10:38:39.724Z,20.42
2023-05-23T10:44:06.239Z,20.20
2023-05-23T10:49:09.137Z,20.06
2023-05-23T10:54:12.273Z,19.96
2023-05-23T10:59:23.139Z,19.66
2023-05-23T11:04:27.806Z,19.55
2023-05-23T11:09:29.807Z,19.55
2023-05-23T11:14:34.595Z,19.80
2023-05-23T11:19:36.598Z,20.05
2023-05-23T11:24:49.454Z,20.35
2023-05-23T11:29:59.021Z,20.59
2023-05-23T11:35:02.962Z,20.71
2023-05-23T11:40:28.088Z,20.53
2023-05-23T11:45:32.281Z,20.40
2023-05-23T11:50:35.437Z,20.28
2023-05-23T11:55:41.330Z,20.40
2023-05-23T12:00:45.328Z,20.39
2023-05-23T12:05:48.906Z,20.55
2023-05-23T12:10:59.950Z,20.63
2023-05-23T12:16:03.421Z,20.82
2023-05-23T12:21:09.087Z,20.98
2023-05-23T12:26:11.450Z,20.99
2023-05-23T12:31:17.218Z,21.08
2023-05-23T12:36:24.543Z,20.92
2023-05-23T12:41:27.169Z,21.06
2023-05-23T12:46:29.117Z,21.31
2023-05-23T12:51:31.145Z,21.27
2023-05-23T12:56:33.129Z,21.17
2023-05-23T13:01:36.841Z,21.18
2023-05-23T13:06:38.852Z,21.02
2023-05-23T13:11:41.641Z,20.84
2023-05-23T13:16:45.165Z,20.75
2023-05-23T13:21:48.741Z,20.88
2023-05-23T13:26:51.678Z,20.84
2023-05-23T13:31:53.950Z,20.75
2023-05-23T13:36:56.055Z,20.56
2023-05-23T13:41:58.020Z,20.51
2023-05-23T13:47:13.714Z,20.39
2023-05-23T13:52:15.675Z,19.97
2023-05-23T13:57:17.682Z,19.65
2023-05-23T14:02:19.601Z,19.47
2023-05-23T14:07:22.150Z,19.16
2023-05-23T14:12:24.170Z,19.03
2023-05-23T14:17:26.134Z,18.88
2023-05-23T14:22:28.124Z,18.74
2023-05-23T14:27:30.005Z,18.69
2023-05-23T14:32:35.785Z,18.62
2023-05-23T14:37:38.160Z,18.60
2023-05-23T14:42:40.107Z,18.60
2023-05-23T14:47:42.136Z,18.57
2023-05-23T14:52:44.154Z,18.43
2023-05-23T14:57:46.157Z,18.44
2023-05-23T15:02:48.269Z,18.35
2023-05-23T15:07:50.203Z,18.31
2023-05-23T15:12:52.235Z,18.31
2023-05-23T15:17:54.249Z,18.20
2023-05-23T15:22:56.216Z,18.13
2023-05-23T15:27:58.608Z,18.14
2023-05-23T15:33:01.773Z,18.20
2023-05-23T15:38:03.840Z,18.29
2023-05-23T15:43:05.923Z,18.23
2023-05-23T15:48:07.883Z,18.18
2023-05-23T15:53:09.954Z,18.08
2023-05-23T15:58:11.940Z,17.98
2023-05-23T16:03:13.873Z,17.95
2023-05-23T16:08:15.907Z,17.75
2023-05-23T16:13:18.120Z,17.78
2023-05-23T16:18:20.870Z,17.63
2023-05-23T16:23:24.356Z,17.26
2023-05-23T16:28:27.501Z,17.07
2023-05-23T16:33:29.418Z,17.11
2023-05-23T16:38:31.430Z,17.02
2023-05-23T16:43:34.700Z,16.88
2023-05-23T16:48:36.580Z,16.73
2023-05-23T16:53:38.479Z,16.73
2023-05-23T16:58:40.357Z,16.74
2023-05-23T17:03:42.586Z,16.61
2023-05-23T17:08:44.623Z,16.58
2023-05-23T17:13:46.764Z,16.45
2023-05-23T17:18:48.688Z,16.24
2023-05-23T17:23:50.665Z,15.93
2023-05-23T17:28:52.701Z,15.94
2023-05-23T17:33:54.619Z,16.03
2023-05-23T17:38:56.924Z,16.04
2023-05-23T17:43:58.854Z,15.88
2023-05-23T17:49:00.942Z,15.79
2023-05-23T17:54:04.442Z,15.75
2023-05-23T17:59:06.408Z,15.61
2023-05-23T18:04:09.353Z,15.47
2023-05-23T18:09:11.238Z,15.37
2023-05-23T18:14:13.147Z,15.45
2023-05-23T18:19:15.239Z,15.43
2023-05-23T18:24:17.256Z,15.27
2023-05-23T18:29:20.184Z,15.23
2023-05-23T18:34:22.530Z,15.21
2023-05-23T18:39:24.425Z,14.98
2023-05-23T18:44:26.486Z,14.79
2023-05-23T18:49:28.410Z,14.80
2023-05-23T18:54:30.376Z,14.71
2023-05-23T18:59:32.298Z,14.75
2023-05-23T19:04:34.156Z,14.78
2023-05-23T19:09:36.067Z,14.75
2023-05-23T19:14:38.027Z,14.69
2023-05-23T19:19:40.030Z,14.60
2023-05-23T19:24:42.553Z,14.67
2023-05-23T19:29:44.663Z,14.64
2023-05-23T19:34:46.628Z,14.60
2023-05-23T19:39:48.826Z,14.67
2023-05-23T19:44:51.384Z,14.75
2023-05-23T19:49:53.302Z,14.89
2023-05-23T19:54:55.189Z,14.78
2023-05-23T19:59:57.104Z,14.71
2023-05-23T20:04:58.992Z,14.71
2023-05-23T20:10:00.903Z,14.73
2023-05-23T20:15:03.965Z,14.68
2023-05-23T20:20:06.580Z,14.70
2023-05-23T20:25:08.769Z,14.67
2023-05-23T20:30:11.389Z,14.63
2023-05-23T20:35:13.532Z,14.58
2023-05-23T20:40:15.406Z,14.51
2023-05-23T20:45:17.509Z,14.31
2023-05-23T20:50:19.561Z,14.23
2023-05-23T20:55:22.438Z,14.25
2023-05-23T21:00:24.480Z,14.12
2023-05-23T21:05:26.655Z,14.09
2023-05-23T21:10:29.181Z,14.06
2023-05-23T21:15:31.505Z,13.98
2023-05-23T21:20:33.463Z,14.03
2023-05-23T21:25:35.403Z,14.11
2023-05-23T21:30:37.293Z,14.03
2023-05-23T21:35:39.371Z,14.08
2023-05-23T21:40:41.593Z,14.08
2023-05-23T21:45:43.626Z,14.10
2023-05-23T21:50:45.518Z,14.15
2023-05-23T21:55:47.510Z,14.06
2023-05-23T22:00:49.397Z,13.90
2023-05-23T22:05:51.289Z,13.95
2023-05-23T22:10:53.155Z,13.98
2023-05-23T22:15:55.095Z,14.09
2023-05-23T22:20:56.945Z,14.11
2023-05-23T22:25:58.874Z,14.12
2023-05-23T22:31:02.938Z,14.08
2023-05-23T22:36:05.409Z,13.89
2023-05-23T22:41:07.331Z,13.82
2023-05-23T22:46:09.267Z,13.85
2023-05-23T22:51:13.379Z,13.86
2023-05-23T22:56:15.785Z,13.80
2023-05-23T23:01:17.833Z,13.75
2023-05-23T23:06:21.168Z,13.75
2023-05-23T23:11:23.044Z,13.72
2023-05-23T23:16:26.224Z,13.68
2023-05-23T23:21:28.288Z,13.64
2023-05-23T23:26:30.197Z,13.63
2023-05-23T23:31:32.297Z,13.67
2023-05-23T23:36:34.348Z,13.71
2023-05-23T23:41:36.222Z,13.63
2023-05-23T23:46:38.191Z,13.64
2023-05-23T23:51:40.072Z,13.61
2023-05-23T23:56:42.048Z,13.46
